Time;durP1;ratioP1;P1;durP2;ratioP2;P2;SDS_P1;SDS_P2;PMS_P1;PMS_P2;Temp;Humidity;BMP_temperature;BMP_pressure;BME280_temperature;BME280_humidity;BME280_pressure;Samples;Min_cycle;Max_cycle;Signal;HPM_P1;HPM_P2
2023/09/14 00:01:03;;;;;;;8.05;2.30;;;;;;;15.46;66.20;102293.66;7390926;19;20091;-59
2023/09/14 00:03:30;;;;;;;8.70;2.10;;;;;;;15.43;66.50;102293.88;7391028;19;20094;-59
2023/09/14 00:05:58;;;;;;;6.50;1.90;;;;;;;15.40;66.18;102288.75;7389121;19;20014;-59
2023/09/14 00:08:30;;;;;;;8.70;1.88;;;;;;;15.40;66.66;102294.09;7390465;19;20019;-58
2023/09/14 00:11:00;;;;;;;9.57;2.65;;;;;;;15.42;66.53;102289.50;7390150;19;20093;-59
2023/09/14 00:13:27;;;;;;;8.55;2.35;;;;;;;15.27;67.22;102300.28;7391204;19;20047;-59
2023/09/14 00:15:55;;;;;;;10.27;2.15;;;;;;;15.31;67.36;102293.75;7387252;19;20423;-59
2023/09/14 00:18:23;;;;;;;9.90;2.60;;;;;;;15.42;67.00;102300.19;7392221;19;20019;-59
2023/09/14 00:20:52;;;;;;;10.48;2.47;;;;;;;15.34;67.28;102309.56;7391141;19;20405;-59
2023/09/14 00:23:21;;;;;;;10.02;2.35;;;;;;;15.36;67.31;102299.63;7392461;19;20019;-59
2023/09/14 00:25:49;;;;;;;13.00;2.67;;;;;;;15.44;67.08;102306.25;7387485;19;20337;-59
2023/09/14 00:28:18;;;;;;;11.65;2.53;;;;;;;15.52;67.02;102302.06;7392040;19;20039;-59
2023/09/14 00:30:46;;;;;;;8.27;2.15;;;;;;;15.57;67.00;102297.28;7391378;19;20382;-58
2023/09/14 00:33:13;;;;;;;9.35;2.45;;;;;;;15.64;66.38;102299.50;7389032;19;20022;-54
2023/09/14 00:35:45;;;;;;;11.38;3.05;;;;;;;15.78;64.90;102302.97;7391946;19;20021;-64
2023/09/14 00:38:13;;;;;;;8.43;2.28;;;;;;;15.80;65.32;102309.06;7397750;19;20022;-59
2023/09/14 00:40:41;;;;;;;9.70;2.65;;;;;;;15.70;66.85;102297.31;7397480;19;20011;-58
2023/09/14 00:43:08;;;;;;;7.63;2.30;;;;;;;15.66;67.23;102294.97;7397599;19;20043;-58
2023/09/14 00:45:36;;;;;;;8.02;2.70;;;;;;;15.67;66.68;102310.03;7395182;19;20025;-54
2023/09/14 00:48:03;;;;;;;9.88;2.72;;;;;;;15.68;66.62;102307.25;7397617;19;20111;-54
2023/09/14 00:50:33;;;;;;;12.85;3.53;;;;;;;15.70;66.68;102305.31;7397617;19;20043;-57
2023/09/14 00:53:07;;;;;;;9.48;3.42;;;;;;;15.64;67.01;102308.38;7395701;19;20018;-57
2023/09/14 00:55:35;;;;;;;10.02;3.88;;;;;;;15.63;67.31;102316.50;7394662;19;20022;-59
2023/09/14 00:58:03;;;;;;;12.43;5.03;;;;;;;15.56;67.57;102316.94;7396651;19;20503;-59
2023/09/14 01:00:31;;;;;;;14.35;6.30;;;;;;;15.37;67.67;102308.47;7395433;19;20019;-58
2023/09/14 01:02:59;;;;;;;14.45;6.00;;;;;;;15.30;68.02;102310.75;7397380;19;20082;-58
2023/09/14 01:05:30;;;;;;;11.65;5.07;;;;;;;15.32;67.61;102313.31;7394738;19;20043;-58
2023/09/14 01:07:58;;;;;;;13.68;5.85;;;;;;;15.32;67.32;102314.16;7396705;19;20479;-58
2023/09/14 01:10:26;;;;;;;14.30;5.72;;;;;;;15.40;67.56;102310.09;7396572;19;20539;-58
2023/09/14 01:12:54;;;;;;;13.20;4.93;;;;;;;15.32;67.89;102306.13;7397196;19;20014;-58
2023/09/14 01:15:26;;;;;;;10.35;4.75;;;;;;;15.22;68.32;102313.06;7393704;19;20377;-58
2023/09/14 01:18:19;;;;;;;10.30;3.80;;;;;;;15.18;68.27;102306.22;7396260;19;20483;-59
2023/09/14 01:20:47;;;;;;;11.80;4.27;;;;;;;15.12;68.29;102314.66;7394377;19;20018;-56
2023/09/14 01:23:28;;;;;;;7.60;3.58;;;;;;;14.98;69.06;102304.06;7395816;19;20311;-57
2023/09/14 01:25:56;;;;;;;11.27;4.43;;;;;;;14.92;68.91;102302.69;7393926;19;20017;-56
2023/09/14 01:28:23;;;;;;;12.00;4.38;;;;;;;14.72;69.61;102309.31;7394245;19;20632;-55
2023/09/14 01:30:51;;;;;;;10.25;4.13;;;;;;;14.65;69.97;102305.34;7394471;19;20099;-58
2023/09/14 01:33:21;;;;;;;12.55;4.35;;;;;;;14.41;71.53;102306.94;7395731;19;20014;-59
2023/09/14 01:36:00;;;;;;;12.90;4.90;;;;;;;14.57;71.00;102305.00;7391302;19;20784;-58
2023/09/14 01:38:29;;;;;;;10.57;4.57;;;;;;;14.76;70.21;102296.63;7395395;19;20023;-59
2023/09/14 01:40:58;;;;;;;13.35;4.95;;;;;;;14.96;69.65;102306.00;7395189;19;20022;-58
2023/09/14 01:43:26;;;;;;;9.57;4.53;;;;;;;14.86;69.67;102303.94;7395272;19;20059;-59
2023/09/14 01:45:54;;;;;;;11.45;4.68;;;;;;;14.74;70.38;102294.09;7392660;19;20018;-58
2023/09/14 01:48:22;;;;;;;11.80;4.50;;;;;;;14.52;70.95;102305.31;7395258;19;20021;-59
2023/09/14 01:50:50;;;;;;;10.73;4.07;;;;;;;14.45;71.63;102311.97;7395100;19;20333;-59
2023/09/14 01:53:18;;;;;;;9.68;4.05;;;;;;;14.70;71.01;102305.91;7395683;19;20014;-57
2023/09/14 01:55:45;;;;;;;11.75;4.43;;;;;;;14.79;69.98;102304.44;7392396;19;20014;-57
2023/09/14 01:58:13;;;;;;;11.98;4.43;;;;;;;14.54;71.09;102310.56;7394861;19;20015;-58
2023/09/14 02:00:40;;;;;;;12.70;4.50;;;;;;;14.61;70.96;102306.50;7392955;19;20414;-59
2023/09/14 02:03:08;;;;;;;11.48;4.55;;;;;;;14.79;70.58;102299.97;7395234;19;20363;-58
2023/09/14 02:05:35;;;;;;;12.40;4.57;;;;;;;14.90;70.34;102303.72;7392330;19;20014;-58
2023/09/14 02:08:03;;;;;;;10.00;4.07;;;;;;;14.79;70.10;102302.63;7393450;19;20594;-59
2023/09/14 02:10:31;;;;;;;11.80;4.88;;;;;;;14.45;71.75;102305.78;7394542;19;20019;-55
2023/09/14 02:12:58;;;;;;;13.65;5.22;;;;;;;14.43;71.67;102305.03;7394408;19;20086;-59
2023/09/14 02:15:26;;;;;;;10.98;4.47;;;;;;;14.58;71.43;102310.25;7392517;19;20022;-60
2023/09/14 02:17:53;;;;;;;11.48;4.68;;;;;;;14.68;71.40;102318.47;7394488;19;20026;-59
2023/09/14 02:20:21;;;;;;;10.95;5.00;;;;;;;14.73;70.75;102312.84;7394346;19;20025;-59
2023/09/14 02:22:48;;;;;;;10.45;4.45;;;;;;;14.82;70.20;102306.91;7392784;19;20021;-59
2023/09/14 02:25:16;;;;;;;10.25;3.42;;;;;;;14.82;69.78;102306.91;7392082;19;20056;-60
2023/09/14 02:27:44;;;;;;;8.52;2.97;;;;;;;14.96;68.59;102304.19;7393620;19;20019;-58
2023/09/14 02:30:11;;;;;;;10.32;4.35;;;;;;;14.91;69.48;102300.94;7392907;19;20018;-60
2023/09/14 02:32:39;;;;;;;10.40;3.90;;;;;;;14.96;69.49;102306.84;7392693;19;20039;-57
2023/09/14 02:35:07;;;;;;;7.50;3.03;;;;;;;15.07;68.94;102314.09;7392293;19;20029;-58
2023/09/14 02:37:34;;;;;;;9.55;3.05;;;;;;;14.87;69.14;102304.78;7394039;19;20027;-58
2023/09/14 02:40:05;;;;;;;8.73;2.90;;;;;;;14.74;69.90;102312.75;7394193;19;20015;-57
2023/09/14 02:42:36;;;;;;;8.27;2.65;;;;;;;14.78;69.17;102316.94;7393729;19;20018;-58
2023/09/14 02:45:04;;;;;;;11.40;2.75;;;;;;;14.90;68.46;102307.25;7391958;19;20022;-59
2023/09/14 02:47:32;;;;;;;9.18;2.60;;;;;;;14.84;68.84;102305.88;7393180;19;20018;-59
2023/09/14 02:50:00;;;;;;;12.27;3.28;;;;;;;14.71;69.38;102315.63;7393838;19;20118;-58
2023/09/14 02:52:28;;;;;;;8.68;2.50;;;;;;;14.90;69.66;102307.25;7393179;19;20018;-58
2023/09/14 02:54:56;;;;;;;9.70;3.03;;;;;;;14.95;69.53;102317.59;7389222;19;20019;-58
2023/09/14 02:57:23;;;;;;;7.70;2.70;;;;;;;14.86;69.60;102319.94;7391973;19;20098;-59
2023/09/14 02:59:55;;;;;;;8.80;2.65;;;;;;;14.93;69.48;102312.38;7392758;19;20019;-59
2023/09/14 03:02:22;;;;;;;8.35;2.80;;;;;;;14.79;70.10;102315.09;7392916;19;20021;-59
2023/09/14 03:04:50;;;;;;;9.18;3.05;;;;;;;14.73;70.29;102308.38;7391109;19;20087;-58
2023/09/14 03:07:18;;;;;;;10.20;2.80;;;;;;;14.82;69.82;102310.44;7392482;19;20339;-60
2023/09/14 03:09:45;;;;;;;7.78;2.55;;;;;;;14.99;69.06;102308.44;7390284;19;20014;-59
2023/09/14 03:12:13;;;;;;;10.15;2.85;;;;;;;15.03;69.07;102309.94;7392765;19;20014;-56
2023/09/14 03:14:40;;;;;;;8.77;3.20;;;;;;;14.98;69.62;102312.06;7393815;19;20019;-59
2023/09/14 03:17:08;;;;;;;7.57;2.63;;;;;;;14.79;70.05;102299.97;7392356;19;20086;-59
2023/09/14 03:19:35;;;;;;;11.05;2.60;;;;;;;14.78;69.39;102313.41;7392480;19;20042;-58
2023/09/14 03:22:03;;;;;;;10.90;2.83;;;;;;;14.86;68.88;102314.59;7391988;19;20022;-58
2023/09/14 03:24:30;;;;;;;6.90;2.10;;;;;;;14.86;68.58;102305.75;7390976;19;20046;-60
2023/09/14 03:26:57;;;;;;;8.63;2.65;;;;;;;14.93;68.35;102308.88;7392510;19;20031;-60
2023/09/14 03:29:25;;;;;;;7.45;2.03;;;;;;;14.90;68.11;102311.72;7392068;19;20014;-59
2023/09/14 03:31:52;;;;;;;6.60;2.08;;;;;;;15.01;67.52;102306.53;7391623;19;20042;-60
2023/09/14 03:34:20;;;;;;;7.35;1.92;;;;;;;14.87;67.79;102315.44;7388832;19;20022;-60
2023/09/14 03:36:47;;;;;;;4.35;1.85;;;;;;;14.91;68.51;102316.09;7391945;19;20026;-60
2023/09/14 03:39:15;;;;;;;7.60;1.77;;;;;;;14.85;68.28;102310.22;7391572;19;20401;-60
2023/09/14 03:41:42;;;;;;;7.53;1.80;;;;;;;14.93;67.72;102311.53;7391306;19;20018;-60
2023/09/14 03:44:10;;;;;;;7.00;2.03;;;;;;;14.90;68.13;102320.59;7391129;19;20036;-59
2023/09/14 03:46:37;;;;;;;6.85;1.80;;;;;;;14.91;68.37;102324.09;7390688;19;20479;-58
2023/09/14 03:49:06;;;;;;;10.18;2.40;;;;;;;14.83;68.08;102311.28;7391252;19;20018;-57
2023/09/14 03:51:37;;;;;;;8.60;2.30;;;;;;;14.81;67.74;102315.88;7391878;19;20010;-55
2023/09/14 03:54:05;;;;;;;10.02;2.35;;;;;;;14.88;67.29;102314.47;7390914;19;20487;-57
2023/09/14 03:56:36;;;;;;;9.77;1.90;;;;;;;14.91;67.04;102313.44;7391913;19;20026;-58
2023/09/14 03:59:04;;;;;;;5.20;1.67;;;;;;;14.92;67.30;102309.81;7391958;19;20368;-59
2023/09/14 04:01:31;;;;;;;8.30;2.50;;;;;;;14.96;67.75;102314.00;7390749;19;20035;-59
2023/09/14 04:03:58;;;;;;;6.22;2.20;;;;;;;14.92;68.13;102320.47;7390330;19;20035;-58
2023/09/14 04:06:26;;;;;;;5.63;1.88;;;;;;;14.86;68.20;102322.59;7390009;19;20397;-59
2023/09/14 04:08:53;;;;;;;8.05;1.90;;;;;;;14.93;68.02;102311.53;7390925;19;20087;-60
2023/09/14 04:11:21;;;;;;;6.40;1.92;;;;;;;14.78;68.26;102313.41;7398121;19;20514;-60
2023/09/14 04:13:48;;;;;;;8.32;1.92;;;;;;;14.83;67.86;102317.47;7397423;19;20018;-59
2023/09/14 04:16:16;;;;;;;6.93;2.33;;;;;;;14.77;68.09;102325.91;7398110;19;20027;-60
2023/09/14 04:18:44;;;;;;;5.03;1.80;;;;;;;14.76;68.32;102331.31;7398688;19;20027;-59
2023/09/14 04:21:12;;;;;;;8.15;2.63;;;;;;;14.84;68.24;102328.97;7398709;19;20014;-60
2023/09/14 04:23:39;;;;;;;6.70;2.10;;;;;;;14.56;68.90;102328.16;7398654;19;20014;-59
2023/09/14 04:26:06;;;;;;;8.18;2.22;;;;;;;14.50;69.45;102325.00;7394414;19;20531;-60
2023/09/14 04:28:34;;;;;;;8.55;2.30;;;;;;;14.51;69.44;102330.25;7396410;19;20018;-59
2023/09/14 04:31:02;;;;;;;7.70;2.22;;;;;;;14.50;69.61;102333.00;7396362;19;20014;-58
2023/09/14 04:33:32;;;;;;;8.23;2.55;;;;;;;14.49;69.86;102333.94;7396399;19;20056;-60
2023/09/14 04:36:03;;;;;;;7.93;2.45;;;;;;;14.43;70.51;102342.34;7394680;19;20025;-60
2023/09/14 04:38:32;;;;;;;6.63;2.45;;;;;;;14.27;71.12;102339.78;7397190;19;20014;-60
2023/09/14 04:41:04;;;;;;;9.88;2.58;;;;;;;14.37;71.09;102341.78;7397312;19;20010;-59
2023/09/14 04:43:32;;;;;;;9.07;2.83;;;;;;;14.37;71.25;102347.09;7400121;19;20022;-59
2023/09/14 04:46:01;;;;;;;8.05;2.63;;;;;;;14.50;71.10;102352.56;7396319;19;20021;-60
2023/09/14 04:48:29;;;;;;;7.22;2.95;;;;;;;14.66;70.33;102360.41;7398838;19;20487;-60
2023/09/14 04:50:59;;;;;;;10.32;3.50;;;;;;;14.74;70.14;102360.75;7399894;19;20377;-60
2023/09/14 04:53:27;;;;;;;13.27;3.85;;;;;;;14.82;69.84;102352.25;7400159;19;20018;-59
2023/09/14 04:55:55;;;;;;;11.93;3.50;;;;;;;14.87;69.62;102363.47;7393316;19;20043;-59
2023/09/14 04:58:22;;;;;;;9.75;3.47;;;;;;;14.52;70.84;102360.44;7397341;19;20011;-60
2023/09/14 05:00:53;;;;;;;12.15;3.28;;;;;;;14.66;70.65;102363.06;7400996;19;20369;-60
2023/09/14 05:03:20;;;;;;;7.68;2.63;;;;;;;14.71;70.45;102358.28;7400565;19;20018;-60
2023/09/14 05:05:53;;;;;;;9.18;2.40;;;;;;;14.70;69.87;102363.72;7396955;19;20025;-60
2023/09/14 05:08:21;;;;;;;8.17;2.57;;;;;;;14.39;71.03;102369.19;7396450;19;20015;-61
2023/09/14 05:10:50;;;;;;;9.77;2.40;;;;;;;14.46;71.24;102371.44;7398318;19;20047;-60
2023/09/14 05:13:20;;;;;;;10.05;2.65;;;;;;;14.56;70.92;102367.28;7398092;19;20014;-60
2023/09/14 05:15:48;;;;;;;9.40;2.85;;;;;;;14.38;71.09;102361.28;7397514;19;20014;-58
2023/09/14 05:18:16;;;;;;;9.00;2.95;;;;;;;14.37;71.59;102376.41;7400317;19;20018;-57
2023/09/14 05:20:44;;;;;;;8.93;3.25;;;;;;;14.66;71.06;102375.56;7399462;19;20007;-58
2023/09/14 05:23:12;;;;;;;8.32;2.80;;;;;;;14.83;70.33;102372.63;7399702;19;20015;-60
2023/09/14 05:25:40;;;;;;;9.85;3.28;;;;;;;14.89;70.17;102374.06;7395918;19;20010;-59
2023/09/14 05:28:08;;;;;;;11.43;3.65;;;;;;;14.59;70.86;102372.44;7399173;19;20066;-60
2023/09/14 05:30:36;;;;;;;11.27;3.60;;;;;;;14.48;71.56;102369.56;7399091;19;20029;-60
2023/09/14 05:33:03;;;;;;;11.10;3.47;;;;;;;14.71;70.97;102366.28;7395786;19;20884;-60
2023/09/14 05:35:31;;;;;;;11.65;4.63;;;;;;;14.94;70.35;102377.25;7393675;19;20022;-60
2023/09/14 05:37:59;;;;;;;13.00;5.20;;;;;;;15.03;69.90;102376.63;7399243;19;20035;-61
2023/09/14 05:40:27;;;;;;;16.42;6.95;;;;;;;15.09;69.91;102389.59;7399671;19;20010;-60
2023/09/14 05:42:55;;;;;;;11.45;5.38;;;;;;;15.06;69.74;102385.28;7399105;19;20053;-60
2023/09/14 05:45:23;;;;;;;11.75;4.72;;;;;;;15.15;69.94;102386.53;7397217;19;20021;-61
2023/09/14 05:47:50;;;;;;;11.68;3.60;;;;;;;14.93;70.28;102381.75;7399005;19;20356;-61
2023/09/14 05:50:18;;;;;;;10.88;3.20;;;;;;;14.76;70.87;102393.50;7399990;19;20015;-60
2023/09/14 05:52:46;;;;;;;10.02;2.97;;;;;;;14.91;70.61;102391.66;7398915;19;20027;-61
2023/09/14 05:55:13;;;;;;;10.68;3.95;;;;;;;15.04;70.26;102389.91;7397035;19;20468;-59
2023/09/14 05:57:40;;;;;;;7.82;2.50;;;;;;;15.17;69.59;102391.75;7397874;19;20014;-59
2023/09/14 06:00:12;;;;;;;7.03;2.03;;;;;;;15.24;69.55;102383.22;7398215;19;20359;-60
2023/09/14 06:02:42;;;;;;;5.95;1.80;;;;;;;15.25;69.46;102395.59;7397332;19;20021;-60
2023/09/14 06:05:09;;;;;;;8.32;2.50;;;;;;;15.19;69.98;102385.34;7395399;19;20018;-60
2023/09/14 06:07:51;;;;;;;6.60;1.77;;;;;;;15.27;69.61;102387.50;7396434;19;20101;-59
2023/09/14 06:10:20;;;;;;;6.78;2.05;;;;;;;15.34;69.52;102388.81;7398545;19;20019;-59
2023/09/14 06:12:50;;;;;;;5.82;1.90;;;;;;;15.33;69.67;102382.59;7398894;19;20193;-60
2023/09/14 06:15:17;;;;;;;5.60;2.08;;;;;;;15.28;69.88;102390.06;7395920;19;20019;-59
2023/09/14 06:17:48;;;;;;;8.25;2.20;;;;;;;15.39;70.09;102388.50;7397249;19;20018;-60
2023/09/14 06:20:15;;;;;;;8.23;2.15;;;;;;;15.44;70.18;102381.00;7398488;19;20051;-60
2023/09/14 06:22:43;;;;;;;7.03;2.40;;;;;;;15.39;70.81;102391.16;7397220;19;20014;-59
2023/09/14 06:25:11;;;;;;;8.15;2.60;;;;;;;15.51;70.51;102390.31;7395643;19;20024;-59
2023/09/14 06:27:38;;;;;;;8.90;3.30;;;;;;;15.62;69.87;102411.81;7395747;19;20043;-60
2023/09/14 06:30:08;;;;;;;10.57;3.05;;;;;;;15.65;69.75;102403.63;7396924;19;20029;-59
2023/09/14 06:32:35;;;;;;;6.90;2.20;;;;;;;15.72;69.77;102406.69;7394875;19;20010;-60
2023/09/14 06:35:03;;;;;;;7.60;2.30;;;;;;;15.80;69.86;102413.25;7395536;19;20014;-60
2023/09/14 06:37:30;;;;;;;7.88;2.38;;;;;;;15.94;69.90;102408.75;7396614;19;20011;-59
2023/09/14 06:39:58;;;;;;;7.47;2.50;;;;;;;15.92;69.70;102413.34;7396493;19;20086;-60
2023/09/14 06:42:25;;;;;;;6.13;2.20;;;;;;;15.79;70.59;102406.16;7397190;19;20432;-59
2023/09/14 06:44:53;;;;;;;6.07;2.28;;;;;;;15.85;70.16;102415.59;7394881;19;20018;-61
2023/09/14 06:47:20;;;;;;;7.18;2.38;;;;;;;15.80;69.89;102415.06;7394662;19;20089;-60
2023/09/14 06:49:48;;;;;;;10.48;2.70;;;;;;;15.92;69.78;102414.22;7396629;19;20035;-59
2023/09/14 06:52:15;;;;;;;5.63;2.53;;;;;;;16.00;69.64;102417.19;7397548;19;20378;-62
2023/09/14 06:54:45;;;;;;;9.80;2.95;;;;;;;15.99;70.04;102406.63;7394489;19;20015;-60
2023/09/14 06:57:13;;;;;;;10.98;2.50;;;;;;;16.00;69.60;102411.00;7396846;19;20353;-60
2023/09/14 06:59:40;;;;;;;6.97;2.60;;;;;;;16.12;69.72;102407.44;7397208;19;20014;-59
2023/09/14 07:02:08;;;;;;;11.05;3.33;;;;;;;16.14;69.80;102410.00;7397153;19;20018;-60
2023/09/14 07:04:35;;;;;;;9.20;3.53;;;;;;;16.25;69.77;102413.63;7395949;19;20031;-60
2023/09/14 07:07:03;;;;;;;11.05;3.50;;;;;;;16.23;68.02;102418.25;7395303;19;20479;-60
2023/09/14 07:09:31;;;;;;;11.80;3.35;;;;;;;16.36;66.98;102428.06;7396717;19;20509;-60
2023/09/14 07:11:58;;;;;;;13.77;3.47;;;;;;;16.40;66.31;102426.88;7396879;19;20554;-60
2023/09/14 07:14:26;;;;;;;12.48;3.50;;;;;;;16.51;65.42;102427.81;7392962;19;20085;-60
2023/09/14 07:16:53;;;;;;;10.98;3.35;;;;;;;16.56;64.64;102440.88;7395962;19;20018;-58
2023/09/14 07:19:26;;;;;;;11.32;3.25;;;;;;;16.59;65.38;102437.97;7394590;19;20093;-59
2023/09/14 07:21:54;;;;;;;7.80;2.08;;;;;;;16.51;66.13;102437.66;7395432;19;20031;-59
2023/09/14 07:24:22;;;;;;;7.65;2.20;;;;;;;16.49;66.95;102445.81;7394219;19;20036;-60
2023/09/14 07:26:49;;;;;;;8.65;2.60;;;;;;;16.56;67.75;102438.19;7395060;19;20085;-59
2023/09/14 07:29:17;;;;;;;8.75;2.67;;;;;;;16.62;67.57;102442.25;7396241;19;20411;-59
2023/09/14 07:31:44;;;;;;;10.07;2.70;;;;;;;16.63;67.97;102441.25;7394916;19;20019;-59
2023/09/14 07:34:13;;;;;;;8.07;2.38;;;;;;;16.68;67.65;102449.84;7394585;19;20043;-60
2023/09/14 07:36:41;;;;;;;10.05;2.65;;;;;;;16.70;67.21;102446.06;7395883;19;20355;-59
2023/09/14 07:39:09;;;;;;;9.30;3.00;;;;;;;16.76;67.22;102450.16;7395059;19;20031;-59
2023/09/14 07:41:36;;;;;;;10.25;3.10;;;;;;;16.87;67.36;102454.72;7395903;19;20090;-59
2023/09/14 07:44:04;;;;;;;9.18;2.83;;;;;;;16.90;67.66;102451.81;7400457;19;20542;-59
2023/09/14 07:46:32;;;;;;;7.30;2.50;;;;;;;16.95;67.28;102455.88;7409620;19;20033;-58
2023/09/14 07:49:00;;;;;;;9.80;2.75;;;;;;;17.04;66.90;102462.38;7409155;19;20043;-60
2023/09/14 07:51:28;;;;;;;9.05;2.50;;;;;;;17.13;66.59;102477.72;7407794;19;20616;-59
2023/09/14 07:53:55;;;;;;;5.65;2.20;;;;;;;17.14;66.56;102468.75;7409100;19;20018;-59
2023/09/14 07:56:23;;;;;;;10.05;2.80;;;;;;;17.06;66.86;102463.13;7408820;19;20014;-61
2023/09/14 07:58:52;;;;;;;8.88;2.35;;;;;;;17.09;67.00;102462.88;7409049;19;20027;-61
2023/09/14 08:01:20;;;;;;;8.90;2.78;;;;;;;17.05;66.77;102466.75;7409314;19;20014;-60
2023/09/14 08:03:48;;;;;;;11.20;2.67;;;;;;;17.13;66.86;102461.66;7409308;19;20389;-60
2023/09/14 08:06:18;;;;;;;10.77;2.83;;;;;;;17.19;67.22;102463.91;7406968;19;20036;-58
2023/09/14 08:08:49;;;;;;;8.43;2.55;;;;;;;17.21;65.28;102470.00;7409255;19;20022;-59
2023/09/14 08:11:17;;;;;;;8.27;2.35;;;;;;;17.27;64.15;102472.22;7409681;19;20022;-60
2023/09/14 08:13:44;;;;;;;7.50;2.53;;;;;;;17.33;63.30;102470.91;7408028;19;20349;-60
2023/09/14 08:16:12;;;;;;;9.60;2.70;;;;;;;17.37;63.13;102464.38;7408183;19;20007;-60
2023/09/14 08:18:40;;;;;;;8.77;2.72;;;;;;;17.39;62.25;102474.94;7408427;19;20018;-59
2023/09/14 08:21:07;;;;;;;10.23;2.47;;;;;;;17.43;61.27;102471.06;7409202;19;20368;-60
2023/09/14 08:23:35;;;;;;;10.30;2.10;;;;;;;17.56;60.10;102473.69;7408329;19;20018;-60
2023/09/14 08:26:06;;;;;;;5.53;1.90;;;;;;;17.62;58.48;102462.50;7406390;19;20458;-61
2023/09/14 08:28:33;;;;;;;8.18;2.13;;;;;;;17.66;58.28;102472.84;7407739;19;20018;-62
2023/09/14 08:31:01;;;;;;;10.23;1.80;;;;;;;17.69;57.93;102472.63;7409966;19;20019;-61
2023/09/14 08:33:29;;;;;;;6.47;1.77;;;;;;;17.75;56.44;102474.88;7412578;19;20022;-61
2023/09/14 08:35:57;;;;;;;6.47;1.40;;;;;;;17.73;56.52;102474.09;7408620;19;20111;-58
2023/09/14 08:38:28;;;;;;;5.57;1.55;;;;;;;17.78;56.58;102488.06;7407835;19;20035;-60
2023/09/14 08:40:59;;;;;;;6.80;1.73;;;;;;;17.85;56.52;102475.00;7410742;19;20459;-60
2023/09/14 08:43:27;;;;;;;6.63;1.73;;;;;;;17.83;57.03;102470.75;7412452;19;20028;-61
2023/09/14 08:45:58;;;;;;;6.75;1.58;;;;;;;17.86;57.42;102478.53;7405553;19;20023;-62
2023/09/14 08:50:00;;;;;;;6.35;1.50;;;;;;;17.88;57.70;102479.28;7427510;19;20878;-61
2023/09/14 08:52:28;;;;;;;10.55;1.85;;;;;;;17.94;57.24;102471.63;7431555;19;20011;-59
2023/09/14 08:54:57;;;;;;;7.32;1.35;;;;;;;18.06;56.76;102471.66;7426961;19;20503;-60
2023/09/14 08:57:25;;;;;;;5.57;1.60;;;;;;;18.16;56.54;102475.31;7430154;19;20490;-60
2023/09/14 08:59:57;;;;;;;5.05;1.35;;;;;;;18.24;55.15;102481.81;7429423;19;20020;-61
2023/09/14 09:02:27;;;;;;;6.82;1.30;;;;;;;18.26;53.96;102479.84;7430373;19;20010;-60
2023/09/14 09:04:54;;;;;;;6.70;1.08;;;;;;;18.25;52.65;102471.91;7429039;19;20010;-60
2023/09/14 09:07:22;;;;;;;3.60;1.15;;;;;;;18.23;52.62;102468.50;7431070;19;20479;-60
2023/09/14 09:09:50;;;;;;;4.95;1.20;;;;;;;18.18;52.39;102468.00;7428508;19;20183;-60
2023/09/14 09:12:17;;;;;;;4.53;1.13;;;;;;;18.16;53.01;102469.94;7430397;19;20024;-60
2023/09/14 09:14:47;;;;;;;5.75;1.50;;;;;;;18.16;52.53;102468.16;7428734;19;20034;-60
2023/09/14 09:17:14;;;;;;;2.10;0.95;;;;;;;18.19;52.28;102467.03;7431130;19;20022;-59
2023/09/14 09:19:47;;;;;;;2.45;0.80;;;;;;;18.23;50.65;102469.34;7429955;19;20018;-59
2023/09/14 09:22:15;;;;;;;3.67;1.27;;;;;;;18.25;49.78;102467.41;7430753;19;20102;-61
2023/09/14 09:24:42;;;;;;;5.95;0.90;;;;;;;18.37;49.36;102465.56;7429111;19;20412;-61
2023/09/14 09:27:28;;;;;;;5.35;1.10;;;;;;;18.39;50.43;102469.00;7429747;19;20088;-61
2023/09/14 09:30:00;;;;;;;6.13;1.13;;;;;;;18.30;51.20;102474.22;7428379;19;20368;-61
2023/09/14 09:32:28;;;;;;;4.22;0.90;;;;;;;18.25;50.68;102472.78;7429848;19;20460;-61
2023/09/14 09:34:56;;;;;;;6.63;1.40;;;;;;;18.20;51.07;102466.94;7428154;19;20014;-60
2023/09/14 09:37:24;;;;;;;5.30;1.08;;;;;;;18.16;51.64;102465.47;7429452;19;20436;-60
2023/09/14 09:39:52;;;;;;;3.78;1.58;;;;;;;18.17;50.43;102460.94;7430500;19;20018;-61
2023/09/14 09:42:20;;;;;;;4.03;1.00;;;;;;;18.16;50.38;102465.47;7429645;19;20359;-61
2023/09/14 09:44:47;;;;;;;5.30;1.20;;;;;;;18.23;49.85;102471.16;7427578;19;20039;-61
2023/09/14 09:47:16;;;;;;;4.00;1.00;;;;;;;18.27;49.38;102470.81;7429943;19;20387;-59
2023/09/14 09:49:44;;;;;;;3.60;1.15;;;;;;;18.32;49.01;102467.78;7426895;19;20015;-59
2023/09/14 09:52:11;;;;;;;4.80;1.00;;;;;;;18.31;48.64;102471.41;7429730;19;20018;-59
2023/09/14 09:54:40;;;;;;;4.88;0.95;;;;;;;18.34;48.73;102468.50;7428036;19;20014;-59
2023/09/14 09:57:08;;;;;;;7.18;1.15;;;;;;;18.43;48.59;102464.22;7430265;19;20388;-60
2023/09/14 09:59:35;;;;;;;6.20;1.40;;;;;;;18.59;47.63;102472.78;7420742;19;20538;-59
2023/09/14 10:02:03;;;;;;;4.78;1.02;;;;;;;18.75;46.71;102470.59;7400887;19;20019;-57
2023/09/14 10:04:30;;;;;;;5.97;1.27;;;;;;;18.97;46.14;102469.69;7399408;19;20014;-58
2023/09/14 10:06:59;;;;;;;4.35;1.10;;;;;;;19.07;45.42;102469.78;7399874;19;20018;-61
2023/09/14 10:09:35;;;;;;;3.45;1.02;;;;;;;19.05;46.11;102471.75;7398341;19;20037;-60
2023/09/14 10:12:05;;;;;;;6.63;1.30;;;;;;;18.99;46.38;102461.50;7397210;19;20022;-60
2023/09/14 10:14:36;;;;;;;4.65;1.15;;;;;;;18.96;46.02;102468.00;7393935;19;20038;-60
2023/09/14 10:17:07;;;;;;;3.92;1.00;;;;;;;19.01;45.45;102472.13;7394554;19;20522;-60
2023/09/14 10:19:39;;;;;;;9.50;1.20;;;;;;;19.06;46.30;102470.75;7396784;19;20023;-60
2023/09/14 10:22:08;;;;;;;3.90;1.05;;;;;;;19.04;47.40;102472.75;7396170;19;20025;-60
2023/09/14 10:24:37;;;;;;;4.72;1.02;;;;;;;19.08;47.54;102467.94;7394467;19;20026;-60
2023/09/14 10:27:05;;;;;;;4.53;1.30;;;;;;;19.13;47.29;102471.97;7395848;19;20483;-60
2023/09/14 10:29:37;;;;;;;3.92;0.80;;;;;;;19.15;46.69;102471.81;7393984;19;20014;-60
2023/09/14 10:32:06;;;;;;;4.53;1.00;;;;;;;19.18;45.99;102471.56;7396600;19;20039;-60
2023/09/14 10:34:34;;;;;;;4.20;1.02;;;;;;;19.17;45.81;102469.88;7393272;19;20019;-60
2023/09/14 10:37:02;;;;;;;4.55;1.10;;;;;;;19.17;45.58;102468.03;7396541;19;20085;-59
2023/09/14 10:39:30;;;;;;;5.38;0.90;;;;;;;19.18;46.23;102467.06;7396720;19;20042;-59
2023/09/14 10:41:58;;;;;;;2.80;1.00;;;;;;;19.16;46.88;102463.66;7397485;19;20011;-59
2023/09/14 10:44:27;;;;;;;4.20;1.13;;;;;;;19.19;45.98;102466.09;7392351;19;20030;-59
2023/09/14 10:46:59;;;;;;;4.53;0.82;;;;;;;19.20;45.94;102458.88;7395959;19;20035;-60
2023/09/14 10:49:35;;;;;;;5.53;1.13;;;;;;;19.22;45.75;102462.28;7394499;19;20042;-60
2023/09/14 10:52:03;;;;;;;3.88;1.38;;;;;;;19.11;46.34;102455.09;7395480;19;20019;-59
2023/09/14 10:54:31;;;;;;;4.57;1.00;;;;;;;19.18;47.22;102455.47;7394150;19;20072;-57
2023/09/14 10:57:01;;;;;;;3.60;1.05;;;;;;;19.25;46.54;102451.28;7395927;19;20022;-60
2023/09/14 10:59:50;;;;;;;5.03;1.25;;;;;;;19.33;45.56;102450.66;7395902;19;20018;-58
2023/09/14 11:02:37;;;;;;;6.03;1.20;;;;;;;19.30;45.11;102445.53;7395603;19;20491;-55
2023/09/14 11:05:19;;;;;;;6.60;1.20;;;;;;;19.22;45.48;102447.00;7393821;19;20573;-60
2023/09/14 11:08:04;;;;;;;4.93;1.10;;;;;;;19.38;45.08;102456.47;7396172;19;20030;-59
2023/09/14 11:10:37;;;;;;;4.60;1.52;;;;;;;19.36;44.38;102450.41;7393387;19;20015;-60
2023/09/14 11:13:34;;;;;;;6.50;1.35;;;;;;;19.45;44.11;102446.91;7393033;19;20010;-57
2023/09/14 11:16:10;;;;;;;5.00;1.30;;;;;;;19.43;45.23;102448.91;7391328;19;20083;-58
2023/09/14 11:18:44;;;;;;;5.55;1.27;;;;;;;19.51;45.01;102448.25;7394964;19;20062;-59
2023/09/14 11:21:32;;;;;;;3.75;1.30;;;;;;;19.51;45.11;102457.16;7394303;19;20022;-59
2023/09/14 11:24:07;;;;;;;8.20;1.52;;;;;;;19.48;45.07;102455.56;7393376;19;20034;-58
2023/09/14 11:26:44;;;;;;;2.80;1.10;;;;;;;19.51;44.29;102449.09;7393363;19;20365;-58
2023/09/14 11:29:15;;;;;;;6.70;1.33;;;;;;;19.49;44.31;102453.75;7391745;19;20018;-58
2023/09/14 11:31:59;;;;;;;7.07;1.73;;;;;;;19.65;44.13;102447.94;7394329;19;20353;-58